F/V Matmaco — FVNS — position and weather

sailwx.info

Track history (hours):
 
Tides and Currents Weather Stations Pressure Air Temp Water Temp Dewpoint Dewpoint Depression Visibility Wind Speed Wind Dir Waves Ship Positions

F/V Matmaco

Last reported at 2016-May-05 05:14 UTC. Time now 2016-May-06 01:38 UTC.
Position N 46°48' W 002°49'.

Length 20 m.

Type: Other ship. MMSI: 228194000.

Date/timePositionNaut miles runAvg speedWind from/ knotsBaromVisibWave heightAir tempDewpointWater temp
2016-May-05 05:14N 46°48' W 002°49'810.2
2016-May-05 04:24N 46°56' W 002°46'8 9.6
2016-May-05 03:33N 47°04' W 002°42'9 9.0
2016-May-05 02:33N 47°12' W 002°37'7 7.1
2016-May-05 01:33N 47°18' W 002°31'1 0.6
2016-May-05 00:33N 47°19' W 002°31'9 8.8
2016-May-04 23:34N 47°11' W 002°38'1010.3
2016-May-04 22:33N 47°02' W 002°44'29 1.2
2016-May-03 22:27N 46°35' W 003°01'26 4.3
2016-May-03 16:18N 46°59' W 002°47'810.3
2016-May-03 15:33N 47°06' W 002°42'10 9.9
2016-May-03 14:34N 47°15' W 002°36'4 4.4
2016-May-03 13:33N 47°18' W 002°31'  
2016-Apr-30 02:27N 47°18' W 002°31'0 0.0
2016-Apr-30 01:28N 47°18' W 002°31'0 0.0
2016-Apr-30 00:31N 47°18' W 002°31'4 3.6
2016-Apr-29 23:27N 47°16' W 002°36'8 9.3
2016-Apr-29 22:33N 47°09' W 002°41'8 0.2
2016-Apr-27 22:30N 47°01' W 002°42'9 9.5
2016-Apr-27 21:31N 47°09' W 002°38'9 9.6
2016-Apr-27 20:33N 47°18' W 002°35'2 2.3
2016-Apr-27 19:33N 47°18' W 002°31'8 7.6
2016-Apr-27 18:32N 47°12' W 002°39'1010.1
2016-Apr-27 17:33N 47°04' W 002°47'1010.2
2016-Apr-27 16:33N 46°57' W 002°57'12 0.4
2016-Apr-26 11:31N 47°05' W 002°44'1010.1
2016-Apr-26 10:33N 47°14' W 002°38'6 6.0
2016-Apr-26 09:33N 47°18' W 002°31'0 0.0
2016-Apr-26 04:11N 47°18' W 002°31'0 0.1
2016-Apr-26 03:33N 47°18' W 002°31'0 0.0
2016-Apr-26 02:31N 47°18' W 002°31'2 2.6
2016-Apr-26 01:33N 47°19' W 002°34'6 6.4
2016-Apr-26 00:33N 47°13' W 002°38'8 7.7
2016-Apr-25 23:33N 47°06' W 002°43'8 7.6
2016-Apr-25 22:33N 46°60' W 002°50'  
Track history (hours):
 
Tides and Currents Weather Stations Pressure Air Temp Water Temp Dewpoint Dewpoint Depression Visibility Wind Speed Wind Dir Waves Ship Positions

F/V Matmaco

Last reported at 2016-May-05 05:14 UTC. Time now 2016-May-06 01:38 UTC.
Position N 46°48' W 002°49'.

Length 20 m.

Type: Other ship. MMSI: 228194000.

Date/timePositionNaut miles runAvg speedWind from/ knotsBaromVisibWave heightAir tempDewpointWater temp
2016-May-05 05:14N 46°48' W 002°49'810.2
2016-May-05 04:24N 46°56' W 002°46'8 9.6
2016-May-05 03:33N 47°04' W 002°42'9 9.0
2016-May-05 02:33N 47°12' W 002°37'7 7.1
2016-May-05 01:33N 47°18' W 002°31'1 0.6
2016-May-05 00:33N 47°19' W 002°31'9 8.8
2016-May-04 23:34N 47°11' W 002°38'1010.3
2016-May-04 22:33N 47°02' W 002°44'29 1.2
2016-May-03 22:27N 46°35' W 003°01'26 4.3
2016-May-03 16:18N 46°59' W 002°47'810.3
2016-May-03 15:33N 47°06' W 002°42'10 9.9
2016-May-03 14:34N 47°15' W 002°36'4 4.4
2016-May-03 13:33N 47°18' W 002°31'  
2016-Apr-30 02:27N 47°18' W 002°31'0 0.0
2016-Apr-30 01:28N 47°18' W 002°31'0 0.0
2016-Apr-30 00:31N 47°18' W 002°31'4 3.6
2016-Apr-29 23:27N 47°16' W 002°36'8 9.3
2016-Apr-29 22:33N 47°09' W 002°41'8 0.2
2016-Apr-27 22:30N 47°01' W 002°42'9 9.5
2016-Apr-27 21:31N 47°09' W 002°38'9 9.6
2016-Apr-27 20:33N 47°18' W 002°35'2 2.3
2016-Apr-27 19:33N 47°18' W 002°31'8 7.6
2016-Apr-27 18:32N 47°12' W 002°39'1010.1
2016-Apr-27 17:33N 47°04' W 002°47'1010.2
2016-Apr-27 16:33N 46°57' W 002°57'12 0.4
2016-Apr-26 11:31N 47°05' W 002°44'1010.1
2016-Apr-26 10:33N 47°14' W 002°38'6 6.0
2016-Apr-26 09:33N 47°18' W 002°31'0 0.0
2016-Apr-26 04:11N 47°18' W 002°31'0 0.1
2016-Apr-26 03:33N 47°18' W 002°31'0 0.0
2016-Apr-26 02:31N 47°18' W 002°31'2 2.6
2016-Apr-26 01:33N 47°19' W 002°34'6 6.4
2016-Apr-26 00:33N 47°13' W 002°38'8 7.7
2016-Apr-25 23:33N 47°06' W 002°43'8 7.6
2016-Apr-25 22:33N 46°60' W 002°50'  

Dump ship's entire track history